sensor_id;sensor_type;location;lat;lon;timestamp;pressure;altitude;pressure_sealevel;temperature;humidity
75460;BME280;64039;53.060;9.342;2023-07-28T00:00:10;99800.44;;;17.00;100.00
75460;BME280;64039;53.060;9.342;2023-07-28T00:02:35;99802.97;;;17.05;100.00
75460;BME280;64039;53.060;9.342;2023-07-28T00:05:01;99798.72;;;16.99;100.00
75460;BME280;64039;53.060;9.342;2023-07-28T00:07:26;99806.66;;;16.96;100.00
75460;BME280;64039;53.060;9.342;2023-07-28T00:09:52;99795.25;;;16.99;100.00
75460;BME280;64039;53.060;9.342;2023-07-28T00:12:17;99799.59;;;17.00;100.00
75460;BME280;64039;53.060;9.342;2023-07-28T00:14:43;99803.97;;;16.99;100.00
75460;BME280;64039;53.060;9.342;2023-07-28T00:17:08;99810.13;;;17.00;100.00
75460;BME280;64039;53.060;9.342;2023-07-28T00:19:34;99803.97;;;16.99;100.00
75460;BME280;64039;53.060;9.342;2023-07-28T00:21:59;99802.31;;;16.95;100.00
75460;BME280;64039;53.060;9.342;2023-07-28T00:24:24;99809.38;;;16.91;100.00
75460;BME280;64039;53.060;9.342;2023-07-28T00:26:50;99796.13;;;16.97;100.00
75460;BME280;64039;53.060;9.342;2023-07-28T00:29:15;99796.03;;;17.01;100.00
75460;BME280;64039;53.060;9.342;2023-07-28T00:31:41;99806.66;;;16.97;100.00
75460;BME280;64039;53.060;9.342;2023-07-28T00:34:06;99796.25;;;16.91;100.00
75460;BME280;64039;53.060;9.342;2023-07-28T00:36:32;99808.47;;;16.94;100.00
75460;BME280;64039;53.060;9.342;2023-07-28T00:38:57;99802.25;;;16.98;100.00
75460;BME280;64039;53.060;9.342;2023-07-28T00:41:23;99801.34;;;16.99;100.00
75460;BME280;64039;53.060;9.342;2023-07-28T00:43:48;99808.38;;;16.99;100.00
75460;BME280;64039;53.060;9.342;2023-07-28T00:46:14;99800.50;;;16.97;100.00
75460;BME280;64039;53.060;9.342;2023-07-28T00:48:41;99790.06;;;16.92;100.00
75460;BME280;64039;53.060;9.342;2023-07-28T00:51:07;99797.06;;;16.95;100.00
75460;BME280;64039;53.060;9.342;2023-07-28T00:53:33;99799.69;;;16.95;100.00
75460;BME280;64039;53.060;9.342;2023-07-28T00:55:58;99797.81;;;17.00;100.00
75460;BME280;64039;53.060;9.342;2023-07-28T00:58:24;99799.59;;;16.98;100.00
75460;BME280;64039;53.060;9.342;2023-07-28T01:00:49;99806.66;;;16.97;100.00
75460;BME280;64039;53.060;9.342;2023-07-28T01:03:18;99796.97;;;16.98;100.00
75460;BME280;64039;53.060;9.342;2023-07-28T01:06:14;99804.06;;;16.94;100.00
75460;BME280;64039;53.060;9.342;2023-07-28T01:08:56;99811.03;;;16.97;100.00
75460;BME280;64039;53.060;9.342;2023-07-28T01:11:23;99801.34;;;16.99;100.00
75460;BME280;64039;53.060;9.342;2023-07-28T01:13:49;99796.19;;;16.94;100.00
75460;BME280;64039;53.060;9.342;2023-07-28T01:16:14;99795.31;;;16.92;100.00
75460;BME280;64039;53.060;9.342;2023-07-28T01:18:40;99800.59;;;16.94;100.00
75460;BME280;64039;53.060;9.342;2023-07-28T01:21:08;99806.69;;;16.94;100.00
75460;BME280;64039;53.060;9.342;2023-07-28T01:23:52;99818.06;;;16.96;100.00
75460;BME280;64039;53.060;9.342;2023-07-28T01:26:30;99825.00;;;16.99;100.00
75460;BME280;64039;53.060;9.342;2023-07-28T01:28:59;99819.75;;;16.99;100.00
75460;BME280;64039;53.060;9.342;2023-07-28T01:31:25;99822.41;;;16.97;100.00
75460;BME280;64039;53.060;9.342;2023-07-28T01:33:51;99831.06;;;17.03;100.00
75460;BME280;64039;53.060;9.342;2023-07-28T01:36:16;99823.34;;;16.95;100.00
75460;BME280;64039;53.060;9.342;2023-07-28T01:38:42;99815.38;;;17.00;100.00
75460;BME280;64039;53.060;9.342;2023-07-28T01:41:07;99814.66;;;16.90;100.00
75460;BME280;64039;53.060;9.342;2023-07-28T01:43:32;99824.41;;;16.83;100.00
75460;BME280;64039;53.060;9.342;2023-07-28T01:45:58;99820.00;;;16.87;100.00
75460;BME280;64039;53.060;9.342;2023-07-28T01:48:23;99814.75;;;16.85;100.00
75460;BME280;64039;53.060;9.342;2023-07-28T01:50:49;99819.94;;;16.88;100.00
75460;BME280;64039;53.060;9.342;2023-07-28T01:53:14;99819.16;;;16.85;100.00
75460;BME280;64039;53.060;9.342;2023-07-28T01:55:40;99816.41;;;16.89;100.00
75460;BME280;64039;53.060;9.342;2023-07-28T01:58:05;99829.53;;;16.91;100.00
75460;BME280;64039;53.060;9.342;2023-07-28T02:00:31;99824.22;;;16.92;100.00
75460;BME280;64039;53.060;9.342;2023-07-28T02:02:56;99836.50;;;16.95;100.00
75460;BME280;64039;53.060;9.342;2023-07-28T02:05:23;99822.53;;;16.90;100.00
75460;BME280;64039;53.060;9.342;2023-07-28T02:07:48;99833.88;;;16.93;100.00
75460;BME280;64039;53.060;9.342;2023-07-28T02:10:14;99828.59;;;16.95;100.00
75460;BME280;64039;53.060;9.342;2023-07-28T02:12:40;99816.38;;;16.94;100.00
75460;BME280;64039;53.060;9.342;2023-07-28T02:15:06;99826.00;;;16.93;100.00
75460;BME280;64039;53.060;9.342;2023-07-28T02:17:32;99822.50;;;16.93;100.00
75460;BME280;64039;53.060;9.342;2023-07-28T02:19:57;99825.09;;;16.94;100.00
75460;BME280;64039;53.060;9.342;2023-07-28T02:22:23;99816.22;;;17.00;100.00
75460;BME280;64039;53.060;9.342;2023-07-28T02:24:48;99830.31;;;16.97;100.00
75460;BME280;64039;53.060;9.342;2023-07-28T02:27:14;99833.03;;;16.93;100.00
75460;BME280;64039;53.060;9.342;2023-07-28T02:29:39;99832.09;;;16.92;100.00
75460;BME280;64039;53.060;9.342;2023-07-28T02:32:05;99830.41;;;16.90;100.00
75460;BME280;64039;53.060;9.342;2023-07-28T02:34:31;99828.59;;;16.95;100.00
75460;BME280;64039;53.060;9.342;2023-07-28T02:36:57;99833.88;;;16.95;100.00
75460;BME280;64039;53.060;9.342;2023-07-28T02:39:22;99837.38;;;16.92;100.00
75460;BME280;64039;53.060;9.342;2023-07-28T02:41:48;99843.66;;;16.87;100.00
75460;BME280;64039;53.060;9.342;2023-07-28T02:44:13;99841.75;;;16.93;100.00
75460;BME280;64039;53.060;9.342;2023-07-28T02:46:39;99847.72;;;17.02;100.00
75460;BME280;64039;53.060;9.342;2023-07-28T02:49:04;99846.06;;;16.97;100.00
75460;BME280;64039;53.060;9.342;2023-07-28T02:51:30;99844.38;;;16.93;100.00
75460;BME280;64039;53.060;9.342;2023-07-28T02:53:56;99847.03;;;16.93;100.00
75460;BME280;64039;53.060;9.342;2023-07-28T02:56:21;99845.19;;;16.97;100.00
75460;BME280;64039;53.060;9.342;2023-07-28T02:58:48;99854.06;;;16.90;100.00
75460;BME280;64039;53.060;9.342;2023-07-28T03:01:14;99850.56;;;16.91;100.00
75460;BME280;64039;53.060;9.342;2023-07-28T03:03:39;99856.00;;;16.81;100.00
75460;BME280;64039;53.060;9.342;2023-07-28T03:06:05;99857.69;;;16.84;100.00
75460;BME280;64039;53.060;9.342;2023-07-28T03:08:30;99850.69;;;16.83;100.00
75460;BME280;64039;53.060;9.342;2023-07-28T03:10:57;99853.22;;;16.89;100.00
75460;BME280;64039;53.060;9.342;2023-07-28T03:13:23;99862.03;;;16.87;100.00
75460;BME280;64039;53.060;9.342;2023-07-28T03:15:48;99862.84;;;16.90;100.00
75460;BME280;64039;53.060;9.342;2023-07-28T03:18:14;99855.91;;;16.86;100.00
75460;BME280;64039;53.060;9.342;2023-07-28T03:20:39;99862.03;;;16.87;100.00
75460;BME280;64039;53.060;9.342;2023-07-28T03:23:05;99866.28;;;16.92;100.00
75460;BME280;64039;53.060;9.342;2023-07-28T03:25:30;99868.94;;;16.91;100.00
75460;BME280;64039;53.060;9.342;2023-07-28T03:27:55;99862.00;;;16.88;100.00
75460;BME280;64039;53.060;9.342;2023-07-28T03:30:21;99870.66;;;16.95;100.00
75460;BME280;64039;53.060;9.342;2023-07-28T03:32:46;99869.69;;;16.99;100.00
75460;BME280;64039;53.060;9.342;2023-07-28T03:35:13;99867.03;;;17.01;100.00
75460;BME280;64039;53.060;9.342;2023-07-28T03:37:38;99870.50;;;17.03;100.00
75460;BME280;64039;53.060;9.342;2023-07-28T03:40:04;99861.84;;;16.97;100.00
75460;BME280;64039;53.060;9.342;2023-07-28T03:42:29;99869.59;;;17.04;100.00
75460;BME280;64039;53.060;9.342;2023-07-28T03:44:55;99869.66;;;17.01;100.00
75460;BME280;64039;53.060;9.342;2023-07-28T03:47:20;99877.72;;;16.91;100.00
75460;BME280;64039;53.060;9.342;2023-07-28T03:49:46;99863.59;;;16.97;100.00
75460;BME280;64039;53.060;9.342;2023-07-28T03:52:11;99866.97;;;17.04;100.00
75460;BME280;64039;53.060;9.342;2023-07-28T03:54:37;99857.53;;;16.95;100.00
75460;BME280;64039;53.060;9.342;2023-07-28T03:57:02;99867.91;;;17.01;100.00
75460;BME280;64039;53.060;9.342;2023-07-28T03:59:28;99872.19;;;17.07;100.00
75460;BME280;64039;53.060;9.342;2023-07-28T04:01:53;99872.22;;;17.04;100.00
75460;BME280;64039;53.060;9.342;2023-07-28T04:04:19;99874.81;;;17.07;100.00
75460;BME280;64039;53.060;9.342;2023-07-28T04:06:46;99873.91;;;17.06;100.00
75460;BME280;64039;53.060;9.342;2023-07-28T04:09:14;99881.81;;;17.06;100.00
75460;BME280;64039;53.060;9.342;2023-07-28T04:11:39;99883.34;;;17.17;100.00
75460;BME280;64039;53.060;9.342;2023-07-28T04:14:05;99890.28;;;17.21;100.00
75460;BME280;64039;53.060;9.342;2023-07-28T04:16:31;99893.84;;;17.18;100.00
75460;BME280;64039;53.060;9.342;2023-07-28T04:18:57;99894.63;;;17.23;100.00
75460;BME280;64039;53.060;9.342;2023-07-28T04:21:22;99898.09;;;17.24;100.00
75460;BME280;64039;53.060;9.342;2023-07-28T04:23:48;99891.09;;;17.23;100.00
75460;BME280;64039;53.060;9.342;2023-07-28T04:26:13;99891.91;;;17.26;100.00
75460;BME280;64039;53.060;9.342;2023-07-28T04:28:39;99894.47;;;17.29;100.00
75460;BME280;64039;53.060;9.342;2023-07-28T04:31:05;99896.28;;;17.27;100.00
75460;BME280;64039;53.060;9.342;2023-07-28T04:33:30;99901.44;;;17.32;100.00
75460;BME280;64039;53.060;9.342;2023-07-28T04:35:56;99905.31;;;17.14;100.00
75460;BME280;64039;53.060;9.342;2023-07-28T04:38:21;99912.09;;;17.26;100.00
75460;BME280;64039;53.060;9.342;2023-07-28T04:40:47;99905.31;;;17.14;100.00
75460;BME280;64039;53.060;9.342;2023-07-28T04:43:12;99909.78;;;17.10;100.00
75460;BME280;64039;53.060;9.342;2023-07-28T04:45:38;99917.78;;;17.04;100.00
75460;BME280;64039;53.060;9.342;2023-07-28T04:48:03;99919.56;;;17.04;100.00
75460;BME280;64039;53.060;9.342;2023-07-28T04:50:29;99925.47;;;17.15;100.00
75460;BME280;64039;53.060;9.342;2023-07-28T04:52:55;99924.69;;;17.10;100.00
75460;BME280;64039;53.060;9.342;2023-07-28T04:55:20;99930.19;;;16.96;100.00
75460;BME280;64039;53.060;9.342;2023-07-28T04:57:46;99929.38;;;16.92;100.00
75460;BME280;64039;53.060;9.342;2023-07-28T05:00:12;99926.63;;;17.00;100.00
75460;BME280;64039;53.060;9.342;2023-07-28T05:02:38;99925.78;;;17.00;100.00
75460;BME280;64039;53.060;9.342;2023-07-28T05:05:04;99930.00;;;17.07;100.00
75460;BME280;64039;53.060;9.342;2023-07-28T05:07:29;99932.66;;;17.05;100.00
75460;BME280;64039;53.060;9.342;2023-07-28T05:09:55;99934.56;;;16.99;100.00
75460;BME280;64039;53.060;9.342;2023-07-28T05:12:20;99930.19;;;16.97;100.00
75460;BME280;64039;53.060;9.342;2023-07-28T05:14:46;99931.81;;;17.05;100.00
75460;BME280;64039;53.060;9.342;2023-07-28T05:17:12;99928.31;;;17.03;100.00
75460;BME280;64039;53.060;9.342;2023-07-28T05:19:37;99926.50;;;17.08;100.00
75460;BME280;64039;53.060;9.342;2023-07-28T05:22:03;99927.16;;;17.18;100.00
75460;BME280;64039;53.060;9.342;2023-07-28T05:24:28;99922.63;;;17.26;100.00
75460;BME280;64039;53.060;9.342;2023-07-28T05:26:54;99935.66;;;17.31;100.00
75460;BME280;64039;53.060;9.342;2023-07-28T05:29:19;99935.50;;;17.38;100.00
75460;BME280;64039;53.060;9.342;2023-07-28T05:31:45;99946.94;;;17.36;100.00
75460;BME280;64039;53.060;9.342;2023-07-28T05:34:11;99945.53;;;17.21;100.00
75460;BME280;64039;53.060;9.342;2023-07-28T05:36:38;99941.34;;;17.10;100.00
75460;BME280;64039;53.060;9.342;2023-07-28T05:39:07;99949.06;;;17.18;100.00
75460;BME280;64039;53.060;9.342;2023-07-28T05:41:32;99942.13;;;17.14;100.00
75460;BME280;64039;53.060;9.342;2023-07-28T05:43:58;99937.72;;;17.16;100.00
75460;BME280;64039;53.060;9.342;2023-07-28T05:46:23;99939.38;;;17.20;100.00
75460;BME280;64039;53.060;9.342;2023-07-28T05:48:49;99947.22;;;17.22;100.00
75460;BME280;64039;53.060;9.342;2023-07-28T05:51:14;99944.59;;;17.22;100.00
75460;BME280;64039;53.060;9.342;2023-07-28T05:53:40;99952.25;;;17.34;100.00
75460;BME280;64039;53.060;9.342;2023-07-28T05:56:05;99955.28;;;17.14;100.00
75460;BME280;64039;53.060;9.342;2023-07-28T05:58:32;99949.03;;;17.20;100.00
75460;BME280;64039;53.060;9.342;2023-07-28T06:00:57;99947.88;;;17.33;100.00
75460;BME280;64039;53.060;9.342;2023-07-28T06:03:23;99947.69;;;17.42;100.00
75460;BME280;64039;53.060;9.342;2023-07-28T06:05:48;99957.78;;;17.63;100.00
75460;BME280;64039;53.060;9.342;2023-07-28T06:08:13;99959.28;;;17.74;100.00
75460;BME280;64039;53.060;9.342;2023-07-28T06:10:39;99959.94;;;17.84;100.00
75460;BME280;64039;53.060;9.342;2023-07-28T06:13:04;99966.47;;;17.66;100.00
75460;BME280;64039;53.060;9.342;2023-07-28T06:15:30;99965.03;;;17.51;100.00
75460;BME280;64039;53.060;9.342;2023-07-28T06:17:56;99962.28;;;17.57;100.00
75460;BME280;64039;53.060;9.342;2023-07-28T06:20:21;99968.66;;;17.47;100.00
75460;BME280;64039;53.060;9.342;2023-07-28T06:22:47;99968.94;;;17.33;100.00
75460;BME280;64039;53.060;9.342;2023-07-28T06:25:12;99979.09;;;17.50;100.00
75460;BME280;64039;53.060;9.342;2023-07-28T06:27:38;99973.66;;;17.58;100.00
75460;BME280;64039;53.060;9.342;2023-07-28T06:30:04;99981.53;;;17.59;100.00
75460;BME280;64039;53.060;9.342;2023-07-28T06:32:30;99976.88;;;17.72;100.00
75460;BME280;64039;53.060;9.342;2023-07-28T06:34:56;99976.13;;;17.67;100.00
75460;BME280;64039;53.060;9.342;2023-07-28T06:37:23;99981.13;;;17.78;100.00
75460;BME280;64039;53.060;9.342;2023-07-28T06:39:48;99980.09;;;17.85;100.00
75460;BME280;64039;53.060;9.342;2023-07-28T06:42:14;99982.81;;;17.81;100.00
75460;BME280;64039;53.060;9.342;2023-07-28T06:44:42;99985.34;;;17.87;100.00
75460;BME280;64039;53.060;9.342;2023-07-28T06:47:07;99998.47;;;17.88;100.00
75460;BME280;64039;53.060;9.342;2023-07-28T06:49:33;99996.88;;;17.80;100.00
75460;BME280;64039;53.060;9.342;2023-07-28T06:51:58;100000.88;;;17.99;100.00
75460;BME280;64039;53.060;9.342;2023-07-28T06:54:24;99997.28;;;18.03;100.00
75460;BME280;64039;53.060;9.342;2023-07-28T06:56:49;99996.13;;;18.15;100.00
75460;BME280;64039;53.060;9.342;2023-07-28T06:59:15;100006.38;;;18.28;100.00
75460;BME280;64039;53.060;9.342;2023-07-28T07:01:41;100007.66;;;18.47;100.00
75460;BME280;64039;53.060;9.342;2023-07-28T07:04:06;100011.59;;;18.67;100.00
75460;BME280;64039;53.060;9.342;2023-07-28T07:06:32;100019.06;;;18.48;100.00
75460;BME280;64039;53.060;9.342;2023-07-28T07:08:57;100011.63;;;18.29;100.00
75460;BME280;64039;53.060;9.342;2023-07-28T07:11:22;100015.94;;;18.32;100.00
75460;BME280;64039;53.060;9.342;2023-07-28T07:13:48;100011.59;;;18.31;100.00
75460;BME280;64039;53.060;9.342;2023-07-28T07:16:17;100021.91;;;18.01;100.00
75460;BME280;64039;53.060;9.342;2023-07-28T07:18:45;100022.84;;;17.98;100.00
75460;BME280;64039;53.060;9.342;2023-07-28T07:21:10;100009.84;;;17.89;100.00
75460;BME280;64039;53.060;9.342;2023-07-28T07:23:37;100026.31;;;18.00;100.00
75460;BME280;64039;53.060;9.342;2023-07-28T07:26:02;100026.56;;;17.88;100.00
75460;BME280;64039;53.060;9.342;2023-07-28T07:28:28;100021.41;;;17.83;100.00
75460;BME280;64039;53.060;9.342;2023-07-28T07:30:54;100031.00;;;17.86;100.00
75460;BME280;64039;53.060;9.342;2023-07-28T07:33:20;100028.38;;;17.84;100.00
75460;BME280;64039;53.060;9.342;2023-07-28T07:35:46;100030.84;;;17.92;100.00
75460;BME280;64039;53.060;9.342;2023-07-28T07:38:11;100036.06;;;17.97;100.00
75460;BME280;64039;53.060;9.342;2023-07-28T07:40:37;100032.41;;;18.02;100.00
75460;BME280;64039;53.060;9.342;2023-07-28T07:43:03;100044.84;;;17.94;100.00
75460;BME280;64039;53.060;9.342;2023-07-28T07:45:32;100049.06;;;18.03;100.00
75460;BME280;64039;53.060;9.342;2023-07-28T07:48:00;100040.22;;;18.07;100.00
75460;BME280;64039;53.060;9.342;2023-07-28T07:50:26;100047.81;;;18.21;100.00
75460;BME280;64039;53.060;9.342;2023-07-28T07:52:51;100047.41;;;18.38;100.00
75460;BME280;64039;53.060;9.342;2023-07-28T07:55:17;100051.00;;;18.35;100.00
75460;BME280;64039;53.060;9.342;2023-07-28T07:57:42;100044.56;;;18.47;100.00
75460;BME280;64039;53.060;9.342;2023-07-28T08:00:08;100048.09;;;18.46;100.00
75460;BME280;64039;53.060;9.342;2023-07-28T08:02:34;100050.78;;;18.43;100.00
75460;BME280;64039;53.060;9.342;2023-07-28T08:05:00;100046.44;;;18.42;100.00
75460;BME280;64039;53.060;9.342;2023-07-28T08:07:26;100048.66;;;18.59;100.00
75460;BME280;64039;53.060;9.342;2023-07-28T08:09:51;100057.38;;;18.63;100.00
75460;BME280;64039;53.060;9.342;2023-07-28T08:12:17;100056.75;;;18.51;100.00
75460;BME280;64039;53.060;9.342;2023-07-28T08:14:43;100061.84;;;18.59;100.00
75460;BME280;64039;53.060;9.342;2023-07-28T08:17:10;100051.25;;;18.61;100.00
75460;BME280;64039;53.060;9.342;2023-07-28T08:19:35;100074.69;;;18.35;100.00
75460;BME280;64039;53.060;9.342;2023-07-28T08:22:02;100078.47;;;18.23;100.00
75460;BME280;64039;53.060;9.342;2023-07-28T08:24:29;100077.59;;;18.25;100.00
75460;BME280;64039;53.060;9.342;2023-07-28T08:26:54;100084.69;;;18.21;100.00
75460;BME280;64039;53.060;9.342;2023-07-28T08:29:20;100086.25;;;18.30;100.00
75460;BME280;64039;53.060;9.342;2023-07-28T08:31:46;100085.69;;;18.14;100.00
75460;BME280;64039;53.060;9.342;2023-07-28T08:34:12;100095.13;;;18.26;100.00
75460;BME280;64039;53.060;9.342;2023-07-28T08:36:37;100091.72;;;18.20;100.00
75460;BME280;64039;53.060;9.342;2023-07-28T08:39:03;100098.78;;;18.18;100.00
75460;BME280;64039;53.060;9.342;2023-07-28T08:41:29;100096.31;;;18.11;100.00
75460;BME280;64039;53.060;9.342;2023-07-28T08:43:54;100094.41;;;18.17;100.00
75460;BME280;64039;53.060;9.342;2023-07-28T08:46:20;100094.78;;;18.39;100.00
75460;BME280;64039;53.060;9.342;2023-07-28T08:48:46;100107.75;;;18.49;100.00
75460;BME280;64039;53.060;9.342;2023-07-28T08:51:12;100098.63;;;18.64;100.00
75460;BME280;64039;53.060;9.342;2023-07-28T08:53:38;100115.25;;;18.67;100.00
75460;BME280;64039;53.060;9.342;2023-07-28T08:56:04;100108.19;;;18.68;100.00
75460;BME280;64039;53.060;9.342;2023-07-28T08:58:30;100101.44;;;18.94;100.00
75460;BME280;64039;53.060;9.342;2023-07-28T09:00:55;100114.50;;;19.00;100.00
75460;BME280;64039;53.060;9.342;2023-07-28T09:03:21;100116.25;;;19.01;100.00
75460;BME280;64039;53.060;9.342;2023-07-28T09:05:48;100118.09;;;18.96;100.00
75460;BME280;64039;53.060;9.342;2023-07-28T09:08:17;100113.28;;;19.13;100.00
75460;BME280;64039;53.060;9.342;2023-07-28T09:10:47;100118.00;;;19.00;100.00
75460;BME280;64039;53.060;9.342;2023-07-28T09:13:18;100113.09;;;19.20;100.00
75460;BME280;64039;53.060;9.342;2023-07-28T09:15:45;100115.41;;;19.33;100.00
75460;BME280;64039;53.060;9.342;2023-07-28T09:18:17;100121.91;;;19.20;100.00
75460;BME280;64039;53.060;9.342;2023-07-28T09:20:43;100122.22;;;19.42;100.00
75460;BME280;64039;53.060;9.342;2023-07-28T09:23:09;100111.66;;;19.42;100.00
75460;BME280;64039;53.060;9.342;2023-07-28T09:25:36;100119.53;;;19.44;100.00
75460;BME280;64039;53.060;9.342;2023-07-28T09:28:02;100121.56;;;19.34;100.00
75460;BME280;64039;53.060;9.342;2023-07-28T09:30:47;100121.25;;;19.12;100.00
75460;BME280;64039;53.060;9.342;2023-07-28T09:33:13;100125.84;;;19.02;100.00
75460;BME280;64039;53.060;9.342;2023-07-28T09:35:48;100124.16;;;18.99;100.00
75460;BME280;64039;53.060;9.342;2023-07-28T09:38:14;100116.69;;;19.17;100.00
75460;BME280;64039;53.060;9.342;2023-07-28T09:40:40;100132.47;;;19.20;100.00
75460;BME280;64039;53.060;9.342;2023-07-28T09:43:06;100133.09;;;18.94;100.00
75460;BME280;64039;53.060;9.342;2023-07-28T09:45:32;100131.00;;;18.69;100.00
75460;BME280;64039;53.060;9.342;2023-07-28T09:48:01;100130.44;;;18.56;100.00
75460;BME280;64039;53.060;9.342;2023-07-28T09:50:29;100139.00;;;18.66;100.00
75460;BME280;64039;53.060;9.342;2023-07-28T09:53:00;100136.69;;;18.52;100.00
75460;BME280;64039;53.060;9.342;2023-07-28T09:55:26;100145.13;;;18.66;100.00
75460;BME280;64039;53.060;9.342;2023-07-28T09:57:55;100137.06;;;18.73;100.00
75460;BME280;64039;53.060;9.342;2023-07-28T10:00:22;100142.13;;;18.83;100.00
75460;BME280;64039;53.060;9.342;2023-07-28T10:02:48;100130.88;;;18.75;100.00
75460;BME280;64039;53.060;9.342;2023-07-28T10:05:14;100143.91;;;18.81;100.00
75460;BME280;64039;53.060;9.342;2023-07-28T10:07:42;100138.53;;;18.86;100.00
75460;BME280;64039;53.060;9.342;2023-07-28T10:10:11;100149.09;;;18.86;100.00
75460;BME280;64039;53.060;9.342;2023-07-28T10:12:41;100147.34;;;18.85;100.00
75460;BME280;64039;53.060;9.342;2023-07-28T10:15:08;100153.41;;;18.89;100.00
75460;BME280;64039;53.060;9.342;2023-07-28T10:17:36;100156.19;;;18.82;100.00
75460;BME280;64039;53.060;9.342;2023-07-28T10:20:03;100160.47;;;18.86;100.00
75460;BME280;64039;53.060;9.342;2023-07-28T10:22:43;100154.00;;;19.01;100.00
75460;BME280;64039;53.060;9.342;2023-07-28T10:25:10;100146.84;;;19.07;100.00
75460;BME280;64039;53.060;9.342;2023-07-28T10:27:36;100162.31;;;19.22;100.00
75460;BME280;64039;53.060;9.342;2023-07-28T10:30:10;100161.28;;;19.28;100.00
75460;BME280;64039;53.060;9.342;2023-07-28T10:32:40;100167.09;;;19.41;100.00
75460;BME280;64039;53.060;9.342;2023-07-28T10:35:22;100156.78;;;19.66;100.00
75460;BME280;64039;53.060;9.342;2023-07-28T10:37:48;100158.53;;;19.66;100.00
75460;BME280;64039;53.060;9.342;2023-07-28T10:40:27;100164.06;;;19.56;100.00
75460;BME280;64039;53.060;9.342;2023-07-28T10:42:54;100150.59;;;19.34;100.00
75460;BME280;64039;53.060;9.342;2023-07-28T10:45:21;100164.06;;;19.22;100.00
75460;BME280;64039;53.060;9.342;2023-07-28T10:47:48;100164.44;;;19.06;100.00
75460;BME280;64039;53.060;9.342;2023-07-28T10:50:14;100172.59;;;19.31;100.00
75460;BME280;64039;53.060;9.342;2023-07-28T10:52:43;100159.31;;;19.69;100.00
75460;BME280;64039;53.060;9.342;2023-07-28T10:55:20;100151.56;;;20.27;100.00
75460;BME280;64039;53.060;9.342;2023-07-28T10:57:48;100154.22;;;20.56;100.00
75460;BME280;64039;53.060;9.342;2023-07-28T11:00:17;100166.69;;;20.22;100.00
75460;BME280;64039;53.060;9.342;2023-07-28T11:02:43;100173.09;;;20.14;100.00
75460;BME280;64039;53.060;9.342;2023-07-28T11:05:19;100178.66;;;20.34;100.00
75460;BME280;64039;53.060;9.342;2023-07-28T11:07:45;100169.25;;;20.54;100.00
75460;BME280;64039;53.060;9.342;2023-07-28T11:10:12;100177.81;;;20.62;100.00
75460;BME280;64039;53.060;9.342;2023-07-28T11:12:42;100183.16;;;20.61;100.00
75460;BME280;64039;53.060;9.342;2023-07-28T11:15:09;100200.75;;;20.32;100.00
75460;BME280;64039;53.060;9.342;2023-07-28T11:17:39;100201.31;;;20.11;100.00
75460;BME280;64039;53.060;9.342;2023-07-28T11:20:28;100221.38;;;19.51;100.00
75460;BME280;64039;53.060;9.342;2023-07-28T11:25:20;100219.72;;;18.72;100.00
75460;BME280;64039;53.060;9.342;2023-07-28T11:27:46;100213.31;;;18.83;100.00
75460;BME280;64039;53.060;9.342;2023-07-28T11:30:15;100198.75;;;18.65;100.00
75460;BME280;64039;53.060;9.342;2023-07-28T11:32:46;100208.19;;;18.76;100.00
75460;BME280;64039;53.060;9.342;2023-07-28T11:35:13;100213.38;;;18.80;100.00
75460;BME280;64039;53.060;9.342;2023-07-28T11:37:41;100216.31;;;19.07;100.00
75460;BME280;64039;53.060;9.342;2023-07-28T11:40:08;100219.31;;;19.28;100.00
75460;BME280;64039;53.060;9.342;2023-07-28T11:42:41;100218.69;;;19.54;100.00
75460;BME280;64039;53.060;9.342;2023-07-28T11:45:07;100219.31;;;19.64;100.00
75460;BME280;64039;53.060;9.342;2023-07-28T11:47:33;100222.53;;;19.75;100.00
75460;BME280;64039;53.060;9.342;2023-07-28T11:49:59;100228.22;;;19.94;100.00
75460;BME280;64039;53.060;9.342;2023-07-28T11:52:33;100222.47;;;20.11;100.00
75460;BME280;64039;53.060;9.342;2023-07-28T11:55:00;100225.63;;;20.24;100.00
75460;BME280;64039;53.060;9.342;2023-07-28T11:57:27;100226.63;;;20.50;100.00
75460;BME280;64039;53.060;9.342;2023-07-28T11:59:56;100228.84;;;20.36;100.00
75460;BME280;64039;53.060;9.342;2023-07-28T12:02:28;100230.19;;;20.49;100.00
75460;BME280;64039;53.060;9.342;2023-07-28T12:04:55;100235.22;;;20.58;100.00
75460;BME280;64039;53.060;9.342;2023-07-28T12:07:30;100239.59;;;20.60;100.00
75460;BME280;64039;53.060;9.342;2023-07-28T12:09:56;100238.41;;;20.70;100.00
75460;BME280;64039;53.060;9.342;2023-07-28T12:12:27;100236.13;;;20.57;100.00
75460;BME280;64039;53.060;9.342;2023-07-28T12:14:54;100242.50;;;20.50;100.00
75460;BME280;64039;53.060;9.342;2023-07-28T12:17:22;100242.63;;;20.47;100.00
75460;BME280;64039;53.060;9.342;2023-07-28T12:20:07;100245.53;;;20.38;100.00
75460;BME280;64039;53.060;9.342;2023-07-28T12:22:43;100253.22;;;20.14;100.00
75460;BME280;64039;53.060;9.342;2023-07-28T12:25:09;100254.56;;;20.29;100.00
75460;BME280;64039;53.060;9.342;2023-07-28T12:27:34;100258.03;;;20.31;100.00
75460;BME280;64039;53.060;9.342;2023-07-28T12:30:00;100260.81;;;20.26;100.00
75460;BME280;64039;53.060;9.342;2023-07-28T12:32:26;100269.91;;;20.48;100.00
75460;BME280;64039;53.060;9.342;2023-07-28T12:34:52;100272.09;;;20.63;100.00
75460;BME280;64039;53.060;9.342;2023-07-28T12:37:18;100269.50;;;20.62;100.00
75460;BME280;64039;53.060;9.342;2023-07-28T12:39:44;100278.41;;;20.59;100.00
75460;BME280;64039;53.060;9.342;2023-07-28T12:42:11;100276.19;;;20.44;100.00
75460;BME280;64039;53.060;9.342;2023-07-28T12:44:37;100272.50;;;20.49;100.00